Costa Magica — IBQQ — position and weather

sailwx.info

Track history (hours):
 
Tides and Currents Weather Stations Pressure Air Temp Water Temp Dewpoint Dewpoint Depression Visibility Wind Speed Wind Dir Waves Ship Positions

Costa Magica

Last reported at 2019-Apr-24 22:31 UTC. Time now 2019-Apr-24 22:50 UTC.
Position N 43°04' E 006°49'.

Type: Ship. MMSI: 247113300.

Date/timePositionNaut miles runAvg speedWind from/ knotsBaromVisibWave heightAir tempDewpointWater temp
2019-Apr-24 22:31N 43°04' E 006°49'816.6
2019-Apr-24 22:01N 42°59' E 006°40'816.8
2019-Apr-24 21:30N 42°56' E 006°29'5615.1
2019-Apr-24 17:47N 43°08' E 005°15'412.4
2019-Apr-24 17:30N 43°10' E 005°10'612.2
2019-Apr-24 17:00N 43°16' E 005°13'612.2
2019-Apr-24 16:30N 43°21' E 005°18'2 3.1
2019-Apr-24 16:00N 43°21' E 005°20'0 0.0
2019-Apr-24 15:27N 43°21' E 005°20'0 0.0
2019-Apr-24 15:00N 43°21' E 005°20'0 0.0
2019-Apr-24 14:30N 43°21' E 005°20'0 0.0
2019-Apr-24 14:00N 43°21' E 005°20'0 0.0
2019-Apr-24 13:30N 43°21' E 005°20'0 0.0
2019-Apr-24 13:00N 43°21' E 005°20'0 0.0
2019-Apr-24 12:30N 43°21' E 005°20'0 0.0
2019-Apr-24 12:00N 43°21' E 005°20'0 0.0
2019-Apr-24 11:24N 43°21' E 005°20'0 0.0
2019-Apr-24 11:00N 43°21' E 005°20'0 0.0
2019-Apr-24 10:30N 43°21' E 005°20'0 0.0
2019-Apr-24 09:57N 43°21' E 005°20'0 0.0
2019-Apr-24 09:27N 43°21' E 005°20'0 0.0
2019-Apr-24 09:00N 43°21' E 005°20'0 0.0
2019-Apr-24 08:27N 43°21' E 005°20'0 0.0
2019-Apr-24 07:57N 43°21' E 005°20'0 0.0
2019-Apr-24 07:27N 43°21' E 005°20'0 0.0
2019-Apr-24 06:57N 43°21' E 005°20'0 0.0
2019-Apr-24 06:27N 43°21' E 005°20'0 0.1
2019-Apr-24 06:00N 43°21' E 005°20'3 5.4
2019-Apr-24 05:30N 43°20' E 005°16'5 9.6
2019-Apr-24 05:00N 43°17' E 005°11'4 8.4
2019-Apr-24 04:30N 43°13' E 005°09'5 9.7
2019-Apr-24 04:00N 43°08' E 005°08'43 7.2
2019-Apr-23 22:05N 43°11' E 004°10'110.1
2019-Apr-23 22:01N 43°11' E 004°09'610.8
2019-Apr-23 21:28N 43°09' E 004°01'611.2
2019-Apr-23 20:55N 43°07' E 003°54'113 9.9
2019-Apr-23 09:33N 41°27' E 002°41'110.2
2019-Apr-23 09:27N 41°27' E 002°41'510.0
2019-Apr-23 09:00N 41°23' E 002°36'510.1
2019-Apr-23 08:30N 41°20' E 002°32'510.0
2019-Apr-23 08:00N 41°16' E 002°28'510.3
2019-Apr-23 07:31N 41°11' E 002°24'510.5
2019-Apr-23 07:01N 41°07' E 002°21'510.7
2019-Apr-23 06:30N 41°02' E 002°18'510.7
2019-Apr-23 06:00N 40°57' E 002°16'510.6
2019-Apr-23 05:30N 40°51' E 002°14'96 9.5
2019-Apr-22 19:27N 39°16' E 002°08'711.3
2019-Apr-22 18:53N 39°13' E 002°15'410.6
2019-Apr-22 18:31N 39°12' E 002°20'612.1
2019-Apr-22 18:00N 39°17' E 002°25'612.3
2019-Apr-22 17:31N 39°22' E 002°29'612.5
2019-Apr-22 17:00N 39°27' E 002°34'612.3
2019-Apr-22 16:30N 39°32' E 002°38'1 2.5
2019-Apr-22 16:01N 39°33' E 002°38'0 0.0
2019-Apr-22 15:28N 39°33' E 002°38'0 0.0
2019-Apr-22 14:58N 39°33' E 002°38'0 0.0
2019-Apr-22 14:28N 39°33' E 002°38'0 0.0
2019-Apr-22 13:58N 39°33' E 002°38'0 0.0
2019-Apr-22 13:28N 39°33' E 002°38'0 0.0
2019-Apr-22 12:58N 39°33' E 002°38'0 0.0
2019-Apr-22 12:28N 39°33' E 002°38'0 0.0
2019-Apr-22 11:58N 39°33' E 002°38'0 0.0
2019-Apr-22 11:28N 39°33' E 002°38'0 0.0
2019-Apr-22 10:58N 39°33' E 002°38'0 0.0
2019-Apr-22 10:28N 39°33' E 002°38'0 0.0
2019-Apr-22 09:58N 39°33' E 002°38'0 0.0
2019-Apr-22 09:28N 39°33' E 002°38'0 0.0
2019-Apr-22 08:58N 39°33' E 002°38'0 0.0
2019-Apr-22 08:28N 39°33' E 002°38'0 0.0
2019-Apr-22 07:58N 39°33' E 002°38'0 0.0
2019-Apr-22 07:28N 39°33' E 002°38'0 0.0
2019-Apr-22 06:58N 39°33' E 002°38'0 0.0
2019-Apr-22 06:28N 39°33' E 002°38'0 0.0
2019-Apr-22 05:58N 39°33' E 002°38'1 1.3
2019-Apr-22 05:30N 39°33' E 002°38'3 6.1
2019-Apr-22 05:00N 39°30' E 002°37'612.1
2019-Apr-22 04:30N 39°25' E 002°33'510.2
2019-Apr-22 04:00N 39°25' E 002°26'612.3
2019-Apr-22 03:30N 39°29' E 002°20'8411.3
2019-Apr-21 20:05N 40°53' E 002°11'111.2
2019-Apr-21 19:59N 40°54' E 002°11'511.3
2019-Apr-21 19:31N 40°59' E 002°11'611.7
2019-Apr-21 19:01N 41°05' E 002°10'611.8
2019-Apr-21 18:30N 41°11' E 002°11'611.8
2019-Apr-21 18:00N 41°17' E 002°11'4 7.9
2019-Apr-21 17:30N 41°21' E 002°10'0 0.0
2019-Apr-21 16:58N 41°21' E 002°10'0 0.0
2019-Apr-21 16:28N 41°21' E 002°10'0 0.0
2019-Apr-21 15:58N 41°21' E 002°10'0 0.0
2019-Apr-21 15:28N 41°21' E 002°10'0 0.0
2019-Apr-21 14:58N 41°21' E 002°10'0 0.0
2019-Apr-21 14:28N 41°21' E 002°10'0 0.0
2019-Apr-21 13:58N 41°21' E 002°10'0 0.0
2019-Apr-21 13:28N 41°21' E 002°10'0 0.0
2019-Apr-21 12:58N 41°21' E 002°10'0 0.0
2019-Apr-21 12:28N 41°21' E 002°10'0 0.0
2019-Apr-21 11:58N 41°21' E 002°10'0 0.0
2019-Apr-21 11:28N 41°21' E 002°10'0 0.0
2019-Apr-21 10:58N 41°21' E 002°10'0 0.0
2019-Apr-21 10:29N 41°21' E 002°10'1 1.3
2019-Apr-21 10:00N 41°20' E 002°10'5 9.7
2019-Apr-21 09:30N 41°16' E 002°12'918.3
2019-Apr-21 09:00N 41°16' E 002°24'1019.9
2019-Apr-21 08:30N 41°19' E 002°37'1020.0
2019-Apr-21 08:00N 41°23' E 002°49'1019.9
2019-Apr-21 07:30N 41°27' E 003°01'15819.6
2019-Apr-20 23:26N 42°34' E 006°14'819.7
2019-Apr-20 23:00N 42°38' E 006°24'1019.6
2019-Apr-20 22:30N 42°44' E 006°35'1019.8
2019-Apr-20 22:00N 42°51' E 006°45'1020.0
2019-Apr-20 21:30N 42°58' E 006°55'1019.8
2019-Apr-20 21:00N 43°04' E 007°05'1019.7
2019-Apr-20 20:30N 43°11' E 007°15'1019.5
2019-Apr-20 20:00N 43°17' E 007°25'1019.6
2019-Apr-20 19:30N 43°24' E 007°36'1019.9
2019-Apr-20 19:00N 43°30' E 007°46'1020.1
2019-Apr-20 18:30N 43°37' E 007°56'1020.2
2019-Apr-20 18:00N 43°44' E 008°06'1020.2
2019-Apr-20 17:30N 43°51' E 008°17'1019.7
2019-Apr-20 17:00N 43°59' E 008°25'1019.7
2019-Apr-20 16:30N 44°08' E 008°29'917.9
2019-Apr-20 16:00N 44°17' E 008°32'3 5.6
2019-Apr-20 15:30N 44°19' E 008°29'0 0.4
2019-Apr-20 15:00N 44°19' E 008°29'0 0.0
2019-Apr-20 14:30N 44°19' E 008°29'0 0.0
2019-Apr-20 14:00N 44°19' E 008°29'0 0.0
2019-Apr-20 13:30N 44°19' E 008°29'0 0.0
2019-Apr-20 13:00N 44°19' E 008°29'0 0.0
2019-Apr-20 12:30N 44°19' E 008°29'0 0.0
2019-Apr-20 12:00N 44°19' E 008°29'0 0.0
2019-Apr-20 11:30N 44°19' E 008°29'0 0.0
2019-Apr-20 11:00N 44°19' E 008°29'0 0.0
2019-Apr-20 10:30N 44°19' E 008°29'0 0.0
2019-Apr-20 10:00N 44°19' E 008°29'0 0.0
2019-Apr-20 09:30N 44°19' E 008°29'0 0.0
2019-Apr-20 09:00N 44°19' E 008°29'0 0.0
2019-Apr-20 08:30N 44°19' E 008°29'0 0.0
2019-Apr-20 08:00N 44°19' E 008°29'0 0.0
2019-Apr-20 07:30N 44°19' E 008°29'0 0.0
2019-Apr-20 07:00N 44°19' E 008°29'0 0.0
2019-Apr-20 06:30N 44°19' E 008°29'0 0.0
2019-Apr-20 06:00N 44°19' E 008°29'0 0.0
2019-Apr-20 05:30N 44°19' E 008°29'0 0.4
2019-Apr-20 05:01N 44°19' E 008°29'2 3.9
2019-Apr-20 04:30N 44°18' E 008°32'713.4
2019-Apr-20 04:00N 44°11' E 008°31'918.7
2019-Apr-20 03:30N 44°04' E 008°23'918.5
2019-Apr-20 03:00N 43°56' E 008°16'918.3
2019-Apr-20 02:30N 43°49' E 008°09'918.1
2019-Apr-20 02:00N 43°41' E 008°01'917.7
2019-Apr-20 01:30N 43°35' E 007°53'917.1
2019-Apr-20 01:00N 43°29' E 007°44'917.3
2019-Apr-20 00:30N 43°25' E 007°34'917.7
2019-Apr-20 00:00N 43°20' E 007°24'917.5
2019-Apr-19 23:30N 43°15' E 007°14'917.6
2019-Apr-19 23:00N 43°10' E 007°04'917.6
2019-Apr-19 22:30N 43°05' E 006°53'917.5
2019-Apr-19 22:00N 43°01' E 006°43'917.5
2019-Apr-19 21:30N 42°58' E 006°32'5515.9
2019-Apr-19 18:01N 43°11' E 005°18'017.0
2019-Apr-19 18:00N 43°11' E 005°18'815.1
2019-Apr-19 17:30N 43°19' E 005°17'2 0.2
2019-Apr-19 06:41N 43°21' E 005°20'1 3.2
2019-Apr-19 06:30N 43°21' E 005°19'510.2
2019-Apr-19 06:00N 43°18' E 005°14'917.2
2019-Apr-19 05:30N 43°11' E 005°06'714.9
2019-Apr-19 05:00N 43°05' E 005°00'1314.9
2019-Apr-19 04:09N 42°55' E 004°49'215.2
2019-Apr-19 04:00N 42°53' E 004°47'1415.5
2019-Apr-19 03:08N 42°43' E 004°36'13218.4
2019-Apr-18 19:55N 40°59' E 002°46'  
2019-Apr-15 17:25N 28°36' W 015°58'818.4
2019-Apr-15 17:01N 28°31' W 016°05'714.6
2019-Apr-15 16:30N 28°28' W 016°12'2 4.1
2019-Apr-15 15:59N 28°28' W 016°15'0 0.0
2019-Apr-15 15:26N 28°28' W 016°15'0 0.0
2019-Apr-15 14:59N 28°28' W 016°15'0 0.0
2019-Apr-15 14:29N 28°28' W 016°15'0 0.0
2019-Apr-15 13:59N 28°28' W 016°15'0 0.0
2019-Apr-15 13:29N 28°28' W 016°15'0 0.0
2019-Apr-15 12:59N 28°28' W 016°15'0 0.0
2019-Apr-15 12:29N 28°28' W 016°15'0 0.0
2019-Apr-15 11:59N 28°28' W 016°15'0 0.0
2019-Apr-15 11:29N 28°28' W 016°15'0 0.0
2019-Apr-15 10:59N 28°28' W 016°15'0 0.0
2019-Apr-15 10:29N 28°28' W 016°15'0 0.0
2019-Apr-15 09:59N 28°28' W 016°15'0 0.0
2019-Apr-15 09:29N 28°28' W 016°15'0 0.0
2019-Apr-15 08:59N 28°28' W 016°15'0 0.0
2019-Apr-15 08:29N 28°28' W 016°15'0 0.0
2019-Apr-15 07:59N 28°28' W 016°15'0 0.0
2019-Apr-15 07:29N 28°28' W 016°15'0 0.5
2019-Apr-15 07:00N 28°29' W 016°14'2 3.4
2019-Apr-15 06:30N 28°28' W 016°13'612.7
2019-Apr-15 06:00N 28°22' W 016°15'917.6
2019-Apr-15 05:30N 28°14' W 016°19'917.5
2019-Apr-15 05:00N 28°06' W 016°24'  
Track history (hours):
 
Tides and Currents Weather Stations Pressure Air Temp Water Temp Dewpoint Dewpoint Depression Visibility Wind Speed Wind Dir Waves Ship Positions

Costa Magica

Last reported at 2019-Apr-24 22:31 UTC. Time now 2019-Apr-24 22:50 UTC.
Position N 43°04' E 006°49'.

Type: Ship. MMSI: 247113300.

Date/timePositionNaut miles runAvg speedWind from/ knotsBaromVisibWave heightAir tempDewpointWater temp
2019-Apr-24 22:31N 43°04' E 006°49'816.6
2019-Apr-24 22:01N 42°59' E 006°40'816.8
2019-Apr-24 21:30N 42°56' E 006°29'5615.1
2019-Apr-24 17:47N 43°08' E 005°15'412.4
2019-Apr-24 17:30N 43°10' E 005°10'612.2
2019-Apr-24 17:00N 43°16' E 005°13'612.2
2019-Apr-24 16:30N 43°21' E 005°18'2 3.1
2019-Apr-24 16:00N 43°21' E 005°20'0 0.0
2019-Apr-24 15:27N 43°21' E 005°20'0 0.0
2019-Apr-24 15:00N 43°21' E 005°20'0 0.0
2019-Apr-24 14:30N 43°21' E 005°20'0 0.0
2019-Apr-24 14:00N 43°21' E 005°20'0 0.0
2019-Apr-24 13:30N 43°21' E 005°20'0 0.0
2019-Apr-24 13:00N 43°21' E 005°20'0 0.0
2019-Apr-24 12:30N 43°21' E 005°20'0 0.0
2019-Apr-24 12:00N 43°21' E 005°20'0 0.0
2019-Apr-24 11:24N 43°21' E 005°20'0 0.0
2019-Apr-24 11:00N 43°21' E 005°20'0 0.0
2019-Apr-24 10:30N 43°21' E 005°20'0 0.0
2019-Apr-24 09:57N 43°21' E 005°20'0 0.0
2019-Apr-24 09:27N 43°21' E 005°20'0 0.0
2019-Apr-24 09:00N 43°21' E 005°20'0 0.0
2019-Apr-24 08:27N 43°21' E 005°20'0 0.0
2019-Apr-24 07:57N 43°21' E 005°20'0 0.0
2019-Apr-24 07:27N 43°21' E 005°20'0 0.0
2019-Apr-24 06:57N 43°21' E 005°20'0 0.0
2019-Apr-24 06:27N 43°21' E 005°20'0 0.1
2019-Apr-24 06:00N 43°21' E 005°20'3 5.4
2019-Apr-24 05:30N 43°20' E 005°16'5 9.6
2019-Apr-24 05:00N 43°17' E 005°11'4 8.4
2019-Apr-24 04:30N 43°13' E 005°09'5 9.7
2019-Apr-24 04:00N 43°08' E 005°08'43 7.2
2019-Apr-23 22:05N 43°11' E 004°10'110.1
2019-Apr-23 22:01N 43°11' E 004°09'610.8
2019-Apr-23 21:28N 43°09' E 004°01'611.2
2019-Apr-23 20:55N 43°07' E 003°54'113 9.9
2019-Apr-23 09:33N 41°27' E 002°41'110.2
2019-Apr-23 09:27N 41°27' E 002°41'510.0
2019-Apr-23 09:00N 41°23' E 002°36'510.1
2019-Apr-23 08:30N 41°20' E 002°32'510.0
2019-Apr-23 08:00N 41°16' E 002°28'510.3
2019-Apr-23 07:31N 41°11' E 002°24'510.5
2019-Apr-23 07:01N 41°07' E 002°21'510.7
2019-Apr-23 06:30N 41°02' E 002°18'510.7
2019-Apr-23 06:00N 40°57' E 002°16'510.6
2019-Apr-23 05:30N 40°51' E 002°14'96 9.5
2019-Apr-22 19:27N 39°16' E 002°08'711.3
2019-Apr-22 18:53N 39°13' E 002°15'410.6
2019-Apr-22 18:31N 39°12' E 002°20'612.1
2019-Apr-22 18:00N 39°17' E 002°25'612.3
2019-Apr-22 17:31N 39°22' E 002°29'612.5
2019-Apr-22 17:00N 39°27' E 002°34'612.3
2019-Apr-22 16:30N 39°32' E 002°38'1 2.5
2019-Apr-22 16:01N 39°33' E 002°38'0 0.0
2019-Apr-22 15:28N 39°33' E 002°38'0 0.0
2019-Apr-22 14:58N 39°33' E 002°38'0 0.0
2019-Apr-22 14:28N 39°33' E 002°38'0 0.0
2019-Apr-22 13:58N 39°33' E 002°38'0 0.0
2019-Apr-22 13:28N 39°33' E 002°38'0 0.0
2019-Apr-22 12:58N 39°33' E 002°38'0 0.0
2019-Apr-22 12:28N 39°33' E 002°38'0 0.0
2019-Apr-22 11:58N 39°33' E 002°38'0 0.0
2019-Apr-22 11:28N 39°33' E 002°38'0 0.0
2019-Apr-22 10:58N 39°33' E 002°38'0 0.0
2019-Apr-22 10:28N 39°33' E 002°38'0 0.0
2019-Apr-22 09:58N 39°33' E 002°38'0 0.0
2019-Apr-22 09:28N 39°33' E 002°38'0 0.0
2019-Apr-22 08:58N 39°33' E 002°38'0 0.0
2019-Apr-22 08:28N 39°33' E 002°38'0 0.0
2019-Apr-22 07:58N 39°33' E 002°38'0 0.0
2019-Apr-22 07:28N 39°33' E 002°38'0 0.0
2019-Apr-22 06:58N 39°33' E 002°38'0 0.0
2019-Apr-22 06:28N 39°33' E 002°38'0 0.0
2019-Apr-22 05:58N 39°33' E 002°38'1 1.3
2019-Apr-22 05:30N 39°33' E 002°38'3 6.1
2019-Apr-22 05:00N 39°30' E 002°37'612.1
2019-Apr-22 04:30N 39°25' E 002°33'510.2
2019-Apr-22 04:00N 39°25' E 002°26'612.3
2019-Apr-22 03:30N 39°29' E 002°20'8411.3
2019-Apr-21 20:05N 40°53' E 002°11'111.2
2019-Apr-21 19:59N 40°54' E 002°11'511.3
2019-Apr-21 19:31N 40°59' E 002°11'611.7
2019-Apr-21 19:01N 41°05' E 002°10'611.8
2019-Apr-21 18:30N 41°11' E 002°11'611.8
2019-Apr-21 18:00N 41°17' E 002°11'4 7.9
2019-Apr-21 17:30N 41°21' E 002°10'0 0.0
2019-Apr-21 16:58N 41°21' E 002°10'0 0.0
2019-Apr-21 16:28N 41°21' E 002°10'0 0.0
2019-Apr-21 15:58N 41°21' E 002°10'0 0.0
2019-Apr-21 15:28N 41°21' E 002°10'0 0.0
2019-Apr-21 14:58N 41°21' E 002°10'0 0.0
2019-Apr-21 14:28N 41°21' E 002°10'0 0.0
2019-Apr-21 13:58N 41°21' E 002°10'0 0.0
2019-Apr-21 13:28N 41°21' E 002°10'0 0.0
2019-Apr-21 12:58N 41°21' E 002°10'0 0.0
2019-Apr-21 12:28N 41°21' E 002°10'0 0.0
2019-Apr-21 11:58N 41°21' E 002°10'0 0.0
2019-Apr-21 11:28N 41°21' E 002°10'0 0.0
2019-Apr-21 10:58N 41°21' E 002°10'0 0.0
2019-Apr-21 10:29N 41°21' E 002°10'1 1.3
2019-Apr-21 10:00N 41°20' E 002°10'5 9.7
2019-Apr-21 09:30N 41°16' E 002°12'918.3
2019-Apr-21 09:00N 41°16' E 002°24'1019.9
2019-Apr-21 08:30N 41°19' E 002°37'1020.0
2019-Apr-21 08:00N 41°23' E 002°49'1019.9
2019-Apr-21 07:30N 41°27' E 003°01'15819.6
2019-Apr-20 23:26N 42°34' E 006°14'819.7
2019-Apr-20 23:00N 42°38' E 006°24'1019.6
2019-Apr-20 22:30N 42°44' E 006°35'1019.8
2019-Apr-20 22:00N 42°51' E 006°45'1020.0
2019-Apr-20 21:30N 42°58' E 006°55'1019.8
2019-Apr-20 21:00N 43°04' E 007°05'1019.7
2019-Apr-20 20:30N 43°11' E 007°15'1019.5
2019-Apr-20 20:00N 43°17' E 007°25'1019.6
2019-Apr-20 19:30N 43°24' E 007°36'1019.9
2019-Apr-20 19:00N 43°30' E 007°46'1020.1
2019-Apr-20 18:30N 43°37' E 007°56'1020.2
2019-Apr-20 18:00N 43°44' E 008°06'1020.2
2019-Apr-20 17:30N 43°51' E 008°17'1019.7
2019-Apr-20 17:00N 43°59' E 008°25'1019.7
2019-Apr-20 16:30N 44°08' E 008°29'917.9
2019-Apr-20 16:00N 44°17' E 008°32'3 5.6
2019-Apr-20 15:30N 44°19' E 008°29'0 0.4
2019-Apr-20 15:00N 44°19' E 008°29'0 0.0
2019-Apr-20 14:30N 44°19' E 008°29'0 0.0
2019-Apr-20 14:00N 44°19' E 008°29'0 0.0
2019-Apr-20 13:30N 44°19' E 008°29'0 0.0
2019-Apr-20 13:00N 44°19' E 008°29'0 0.0
2019-Apr-20 12:30N 44°19' E 008°29'0 0.0
2019-Apr-20 12:00N 44°19' E 008°29'0 0.0
2019-Apr-20 11:30N 44°19' E 008°29'0 0.0
2019-Apr-20 11:00N 44°19' E 008°29'0 0.0
2019-Apr-20 10:30N 44°19' E 008°29'0 0.0
2019-Apr-20 10:00N 44°19' E 008°29'0 0.0
2019-Apr-20 09:30N 44°19' E 008°29'0 0.0
2019-Apr-20 09:00N 44°19' E 008°29'0 0.0
2019-Apr-20 08:30N 44°19' E 008°29'0 0.0
2019-Apr-20 08:00N 44°19' E 008°29'0 0.0
2019-Apr-20 07:30N 44°19' E 008°29'0 0.0
2019-Apr-20 07:00N 44°19' E 008°29'0 0.0
2019-Apr-20 06:30N 44°19' E 008°29'0 0.0
2019-Apr-20 06:00N 44°19' E 008°29'0 0.0
2019-Apr-20 05:30N 44°19' E 008°29'0 0.4
2019-Apr-20 05:01N 44°19' E 008°29'2 3.9
2019-Apr-20 04:30N 44°18' E 008°32'713.4
2019-Apr-20 04:00N 44°11' E 008°31'918.7
2019-Apr-20 03:30N 44°04' E 008°23'918.5
2019-Apr-20 03:00N 43°56' E 008°16'918.3
2019-Apr-20 02:30N 43°49' E 008°09'918.1
2019-Apr-20 02:00N 43°41' E 008°01'917.7
2019-Apr-20 01:30N 43°35' E 007°53'917.1
2019-Apr-20 01:00N 43°29' E 007°44'917.3
2019-Apr-20 00:30N 43°25' E 007°34'917.7
2019-Apr-20 00:00N 43°20' E 007°24'917.5
2019-Apr-19 23:30N 43°15' E 007°14'917.6
2019-Apr-19 23:00N 43°10' E 007°04'917.6
2019-Apr-19 22:30N 43°05' E 006°53'917.5
2019-Apr-19 22:00N 43°01' E 006°43'917.5
2019-Apr-19 21:30N 42°58' E 006°32'5515.9
2019-Apr-19 18:01N 43°11' E 005°18'017.0
2019-Apr-19 18:00N 43°11' E 005°18'815.1
2019-Apr-19 17:30N 43°19' E 005°17'2 0.2
2019-Apr-19 06:41N 43°21' E 005°20'1 3.2
2019-Apr-19 06:30N 43°21' E 005°19'510.2
2019-Apr-19 06:00N 43°18' E 005°14'917.2
2019-Apr-19 05:30N 43°11' E 005°06'714.9
2019-Apr-19 05:00N 43°05' E 005°00'1314.9
2019-Apr-19 04:09N 42°55' E 004°49'215.2
2019-Apr-19 04:00N 42°53' E 004°47'1415.5
2019-Apr-19 03:08N 42°43' E 004°36'13218.4
2019-Apr-18 19:55N 40°59' E 002°46'  
2019-Apr-15 17:25N 28°36' W 015°58'818.4
2019-Apr-15 17:01N 28°31' W 016°05'714.6
2019-Apr-15 16:30N 28°28' W 016°12'2 4.1
2019-Apr-15 15:59N 28°28' W 016°15'0 0.0
2019-Apr-15 15:26N 28°28' W 016°15'0 0.0
2019-Apr-15 14:59N 28°28' W 016°15'0 0.0
2019-Apr-15 14:29N 28°28' W 016°15'0 0.0
2019-Apr-15 13:59N 28°28' W 016°15'0 0.0
2019-Apr-15 13:29N 28°28' W 016°15'0 0.0
2019-Apr-15 12:59N 28°28' W 016°15'0 0.0
2019-Apr-15 12:29N 28°28' W 016°15'0 0.0
2019-Apr-15 11:59N 28°28' W 016°15'0 0.0
2019-Apr-15 11:29N 28°28' W 016°15'0 0.0
2019-Apr-15 10:59N 28°28' W 016°15'0 0.0
2019-Apr-15 10:29N 28°28' W 016°15'0 0.0
2019-Apr-15 09:59N 28°28' W 016°15'0 0.0
2019-Apr-15 09:29N 28°28' W 016°15'0 0.0
2019-Apr-15 08:59N 28°28' W 016°15'0 0.0
2019-Apr-15 08:29N 28°28' W 016°15'0 0.0
2019-Apr-15 07:59N 28°28' W 016°15'0 0.0
2019-Apr-15 07:29N 28°28' W 016°15'0 0.5
2019-Apr-15 07:00N 28°29' W 016°14'2 3.4
2019-Apr-15 06:30N 28°28' W 016°13'612.7
2019-Apr-15 06:00N 28°22' W 016°15'917.6
2019-Apr-15 05:30N 28°14' W 016°19'917.5
2019-Apr-15 05:00N 28°06' W 016°24'  

Dump ship's entire track history